logo
Search for airport 
image banner adimage banner adimage banner ad
image banner ad

EIBN - Bantry

Located in , Ireland

ICAO - EIBN, IATA - BYT

Data provided by Airmate  

General information

Coordinates: N51°40'38" W9°29'13"
Elevation is 7 feet MSL.
Magnetic variation is -4.75° East
View others Airports in County Cork

Operational data

Special qualification required
Current time UTC:
Current local time:
Weather at : EIKY - Kerry ( 56 km )
METAR: EIKY 191600Z 32007KT 9999 BKN017 12/09 Q1025
TAF: TAF EIKY 191400Z 1915/1924 32008KT 9999 FEW014 BKN020 PROB40 TEMPO 1922/1924 0500 FG BKN001
View NOTAMs / SUP AIP / TFR affecting this airport [VIEW]
Communications frequencies: [VIEW]

Runways:

RWY identifierQFULength (ft)Width (ft)SurfaceLDA (ft)
07128049MACADAM1280
25128049MACADAM1280

Airport contact information

Address: Ireland

Satellite view of EIBN